sensor_id;sensor_type;location;lat;lon;timestamp;P1;durP1;ratioP1;P2;durP2;ratioP2
75504;SDS011;64085;54.974;73.410;2023-07-02T00:01:23;3.15;;;1.45;;
75504;SDS011;64085;54.974;73.410;2023-07-02T00:03:49;2.67;;;1.50;;
75504;SDS011;64085;54.974;73.410;2023-07-02T00:06:14;2.40;;;1.52;;
75504;SDS011;64085;54.974;73.410;2023-07-02T00:08:43;4.10;;;1.23;;
75504;SDS011;64085;54.974;73.410;2023-07-02T00:11:08;3.40;;;1.70;;
75504;SDS011;64085;54.974;73.410;2023-07-02T00:13:38;2.85;;;1.38;;
75504;SDS011;64085;54.974;73.410;2023-07-02T00:16:03;1.65;;;1.38;;
75504;SDS011;64085;54.974;73.410;2023-07-02T00:18:28;1.45;;;1.30;;
75504;SDS011;64085;54.974;73.410;2023-07-02T00:20:59;1.33;;;0.93;;
75504;SDS011;64085;54.974;73.410;2023-07-02T00:23:25;3.95;;;1.48;;
75504;SDS011;64085;54.974;73.410;2023-07-02T00:25:52;4.93;;;1.95;;
75504;SDS011;64085;54.974;73.410;2023-07-02T00:28:18;3.05;;;1.55;;
75504;SDS011;64085;54.974;73.410;2023-07-02T00:30:43;2.97;;;1.45;;
75504;SDS011;64085;54.974;73.410;2023-07-02T00:33:09;2.72;;;2.13;;
75504;SDS011;64085;54.974;73.410;2023-07-02T00:35:34;2.38;;;1.45;;
75504;SDS011;64085;54.974;73.410;2023-07-02T00:38:00;3.38;;;1.23;;
75504;SDS011;64085;54.974;73.410;2023-07-02T00:40:26;2.47;;;1.20;;
75504;SDS011;64085;54.974;73.410;2023-07-02T00:42:52;3.20;;;1.30;;
75504;SDS011;64085;54.974;73.410;2023-07-02T00:45:17;3.20;;;2.03;;
75504;SDS011;64085;54.974;73.410;2023-07-02T00:47:42;3.20;;;1.48;;
75504;SDS011;64085;54.974;73.410;2023-07-02T00:50:08;2.90;;;1.55;;
75504;SDS011;64085;54.974;73.410;2023-07-02T00:52:35;7.30;;;2.83;;
75504;SDS011;64085;54.974;73.410;2023-07-02T00:55:00;4.63;;;1.80;;
75504;SDS011;64085;54.974;73.410;2023-07-02T00:57:26;3.45;;;1.67;;
75504;SDS011;64085;54.974;73.410;2023-07-02T00:59:55;4.18;;;1.75;;
75504;SDS011;64085;54.974;73.410;2023-07-02T01:02:20;4.80;;;1.77;;
75504;SDS011;64085;54.974;73.410;2023-07-02T01:04:47;2.53;;;0.95;;
75504;SDS011;64085;54.974;73.410;2023-07-02T01:07:14;4.13;;;1.55;;
75504;SDS011;64085;54.974;73.410;2023-07-02T01:09:40;5.25;;;1.45;;
75504;SDS011;64085;54.974;73.410;2023-07-02T01:12:06;2.63;;;1.60;;
75504;SDS011;64085;54.974;73.410;2023-07-02T01:14:37;1.75;;;1.35;;
75504;SDS011;64085;54.974;73.410;2023-07-02T01:17:03;4.35;;;1.85;;
75504;SDS011;64085;54.974;73.410;2023-07-02T01:21:57;9.02;;;1.70;;
75504;SDS011;64085;54.974;73.410;2023-07-02T01:24:23;4.95;;;2.17;;
75504;SDS011;64085;54.974;73.410;2023-07-02T01:26:48;2.67;;;2.15;;
75504;SDS011;64085;54.974;73.410;2023-07-02T01:29:18;3.40;;;2.10;;
75504;SDS011;64085;54.974;73.410;2023-07-02T01:31:43;3.45;;;1.83;;
75504;SDS011;64085;54.974;73.410;2023-07-02T01:34:09;5.20;;;1.77;;
75504;SDS011;64085;54.974;73.410;2023-07-02T01:36:35;5.03;;;1.83;;
75504;SDS011;64085;54.974;73.410;2023-07-02T01:39:01;2.75;;;1.80;;
75504;SDS011;64085;54.974;73.410;2023-07-02T01:41:26;3.92;;;2.15;;
75504;SDS011;64085;54.974;73.410;2023-07-02T01:43:52;3.47;;;2.13;;
75504;SDS011;64085;54.974;73.410;2023-07-02T01:46:17;4.72;;;2.30;;
75504;SDS011;64085;54.974;73.410;2023-07-02T01:48:43;2.33;;;1.65;;
75504;SDS011;64085;54.974;73.410;2023-07-02T01:51:08;4.68;;;2.00;;
75504;SDS011;64085;54.974;73.410;2023-07-02T01:53:33;5.00;;;1.70;;
75504;SDS011;64085;54.974;73.410;2023-07-02T01:55:59;3.40;;;1.98;;
75504;SDS011;64085;54.974;73.410;2023-07-02T01:58:24;2.38;;;1.95;;
75504;SDS011;64085;54.974;73.410;2023-07-02T02:00:50;3.38;;;2.30;;
75504;SDS011;64085;54.974;73.410;2023-07-02T02:03:15;6.40;;;3.17;;
75504;SDS011;64085;54.974;73.410;2023-07-02T02:05:41;3.45;;;2.78;;
75504;SDS011;64085;54.974;73.410;2023-07-02T02:08:06;1.83;;;1.70;;
75504;SDS011;64085;54.974;73.410;2023-07-02T02:10:31;3.95;;;1.65;;
75504;SDS011;64085;54.974;73.410;2023-07-02T02:12:57;4.32;;;1.95;;
75504;SDS011;64085;54.974;73.410;2023-07-02T02:15:22;3.45;;;1.88;;
75504;SDS011;64085;54.974;73.410;2023-07-02T02:17:48;2.50;;;1.65;;
75504;SDS011;64085;54.974;73.410;2023-07-02T02:20:13;2.05;;;1.55;;
75504;SDS011;64085;54.974;73.410;2023-07-02T02:22:39;2.35;;;1.80;;
75504;SDS011;64085;54.974;73.410;2023-07-02T02:25:04;4.13;;;1.83;;
75504;SDS011;64085;54.974;73.410;2023-07-02T02:27:30;3.05;;;2.03;;
75504;SDS011;64085;54.974;73.410;2023-07-02T02:29:55;4.43;;;1.95;;
75504;SDS011;64085;54.974;73.410;2023-07-02T02:32:21;2.95;;;1.50;;
75504;SDS011;64085;54.974;73.410;2023-07-02T02:34:47;2.35;;;1.75;;
75504;SDS011;64085;54.974;73.410;2023-07-02T02:37:12;6.40;;;2.03;;
75504;SDS011;64085;54.974;73.410;2023-07-02T02:39:38;3.83;;;1.45;;
75504;SDS011;64085;54.974;73.410;2023-07-02T02:42:03;3.10;;;1.60;;
75504;SDS011;64085;54.974;73.410;2023-07-02T02:44:29;3.00;;;2.20;;
75504;SDS011;64085;54.974;73.410;2023-07-02T02:46:54;4.75;;;2.10;;
75504;SDS011;64085;54.974;73.410;2023-07-02T02:49:20;6.72;;;2.20;;
75504;SDS011;64085;54.974;73.410;2023-07-02T02:51:48;3.83;;;2.20;;
75504;SDS011;64085;54.974;73.410;2023-07-02T02:54:14;4.88;;;2.45;;
75504;SDS011;64085;54.974;73.410;2023-07-02T02:56:39;5.88;;;2.40;;
75504;SDS011;64085;54.974;73.410;2023-07-02T02:59:05;3.92;;;2.20;;
75504;SDS011;64085;54.974;73.410;2023-07-02T03:01:30;4.65;;;2.22;;
75504;SDS011;64085;54.974;73.410;2023-07-02T03:03:57;3.55;;;2.17;;
75504;SDS011;64085;54.974;73.410;2023-07-02T03:06:23;4.70;;;1.88;;
75504;SDS011;64085;54.974;73.410;2023-07-02T03:08:48;3.70;;;2.10;;
75504;SDS011;64085;54.974;73.410;2023-07-02T03:11:14;4.80;;;1.88;;
75504;SDS011;64085;54.974;73.410;2023-07-02T03:13:39;2.22;;;1.75;;
75504;SDS011;64085;54.974;73.410;2023-07-02T03:16:05;5.70;;;2.00;;
75504;SDS011;64085;54.974;73.410;2023-07-02T03:18:30;3.22;;;2.30;;
75504;SDS011;64085;54.974;73.410;2023-07-02T03:20:56;3.28;;;2.00;;
75504;SDS011;64085;54.974;73.410;2023-07-02T03:23:21;5.60;;;2.53;;
75504;SDS011;64085;54.974;73.410;2023-07-02T03:25:47;8.93;;;2.75;;
75504;SDS011;64085;54.974;73.410;2023-07-02T03:28:12;3.60;;;3.05;;
75504;SDS011;64085;54.974;73.410;2023-07-02T03:30:38;2.75;;;2.15;;
75504;SDS011;64085;54.974;73.410;2023-07-02T03:33:03;2.90;;;2.08;;
75504;SDS011;64085;54.974;73.410;2023-07-02T03:35:29;5.05;;;2.22;;
75504;SDS011;64085;54.974;73.410;2023-07-02T03:37:54;3.78;;;2.42;;
75504;SDS011;64085;54.974;73.410;2023-07-02T03:40:19;3.05;;;2.00;;
75504;SDS011;64085;54.974;73.410;2023-07-02T03:42:45;3.75;;;2.17;;
75504;SDS011;64085;54.974;73.410;2023-07-02T03:45:10;2.22;;;2.10;;
75504;SDS011;64085;54.974;73.410;2023-07-02T03:47:36;3.83;;;2.40;;
75504;SDS011;64085;54.974;73.410;2023-07-02T03:50:01;4.25;;;2.38;;
75504;SDS011;64085;54.974;73.410;2023-07-02T03:52:27;4.65;;;2.60;;
75504;SDS011;64085;54.974;73.410;2023-07-02T03:54:52;4.72;;;2.80;;
75504;SDS011;64085;54.974;73.410;2023-07-02T03:57:17;4.28;;;2.10;;
75504;SDS011;64085;54.974;73.410;2023-07-02T03:59:43;5.40;;;2.90;;
75504;SDS011;64085;54.974;73.410;2023-07-02T04:02:11;3.45;;;2.38;;
75504;SDS011;64085;54.974;73.410;2023-07-02T04:04:36;3.70;;;1.90;;
75504;SDS011;64085;54.974;73.410;2023-07-02T04:07:02;6.30;;;2.50;;
75504;SDS011;64085;54.974;73.410;2023-07-02T04:09:27;3.03;;;2.63;;
75504;SDS011;64085;54.974;73.410;2023-07-02T04:11:53;4.90;;;2.35;;
75504;SDS011;64085;54.974;73.410;2023-07-02T04:14:18;4.93;;;2.72;;
75504;SDS011;64085;54.974;73.410;2023-07-02T04:16:45;5.30;;;2.75;;
75504;SDS011;64085;54.974;73.410;2023-07-02T04:19:10;3.90;;;2.30;;
75504;SDS011;64085;54.974;73.410;2023-07-02T04:21:36;5.57;;;2.97;;
75504;SDS011;64085;54.974;73.410;2023-07-02T04:24:01;6.47;;;2.85;;
75504;SDS011;64085;54.974;73.410;2023-07-02T04:26:27;4.20;;;3.28;;
75504;SDS011;64085;54.974;73.410;2023-07-02T04:28:55;3.53;;;3.22;;
75504;SDS011;64085;54.974;73.410;2023-07-02T04:31:21;2.90;;;2.70;;
75504;SDS011;64085;54.974;73.410;2023-07-02T04:33:46;5.82;;;2.50;;
75504;SDS011;64085;54.974;73.410;2023-07-02T04:36:12;8.45;;;2.70;;
75504;SDS011;64085;54.974;73.410;2023-07-02T04:38:37;4.15;;;2.50;;
75504;SDS011;64085;54.974;73.410;2023-07-02T04:41:04;4.75;;;2.88;;
75504;SDS011;64085;54.974;73.410;2023-07-02T04:43:33;4.93;;;2.80;;
75504;SDS011;64085;54.974;73.410;2023-07-02T04:45:58;4.13;;;2.80;;
75504;SDS011;64085;54.974;73.410;2023-07-02T04:48:24;5.97;;;3.53;;
75504;SDS011;64085;54.974;73.410;2023-07-02T04:50:49;5.13;;;2.80;;
75504;SDS011;64085;54.974;73.410;2023-07-02T04:53:15;3.55;;;3.13;;
75504;SDS011;64085;54.974;73.410;2023-07-02T04:55:40;4.13;;;2.55;;
75504;SDS011;64085;54.974;73.410;2023-07-02T04:58:06;5.32;;;3.55;;
75504;SDS011;64085;54.974;73.410;2023-07-02T05:00:31;3.95;;;3.40;;
75504;SDS011;64085;54.974;73.410;2023-07-02T05:02:57;5.55;;;3.72;;
75504;SDS011;64085;54.974;73.410;2023-07-02T05:05:22;3.33;;;3.08;;
75504;SDS011;64085;54.974;73.410;2023-07-02T05:07:48;4.45;;;4.05;;
75504;SDS011;64085;54.974;73.410;2023-07-02T05:10:13;5.18;;;3.28;;
75504;SDS011;64085;54.974;73.410;2023-07-02T05:12:39;2.58;;;2.38;;
75504;SDS011;64085;54.974;73.410;2023-07-02T05:15:04;3.95;;;3.65;;
75504;SDS011;64085;54.974;73.410;2023-07-02T05:17:33;7.53;;;3.58;;
75504;SDS011;64085;54.974;73.410;2023-07-02T05:20:00;4.15;;;3.30;;
75504;SDS011;64085;54.974;73.410;2023-07-02T05:22:26;3.58;;;3.33;;
75504;SDS011;64085;54.974;73.410;2023-07-02T05:24:51;2.80;;;2.58;;
75504;SDS011;64085;54.974;73.410;2023-07-02T05:27:16;6.72;;;3.67;;
75504;SDS011;64085;54.974;73.410;2023-07-02T05:29:42;3.85;;;3.55;;
75504;SDS011;64085;54.974;73.410;2023-07-02T05:32:08;5.68;;;3.67;;
75504;SDS011;64085;54.974;73.410;2023-07-02T05:34:33;3.58;;;3.28;;
75504;SDS011;64085;54.974;73.410;2023-07-02T05:36:59;4.28;;;3.88;;
75504;SDS011;64085;54.974;73.410;2023-07-02T05:39:24;3.40;;;3.10;;
75504;SDS011;64085;54.974;73.410;2023-07-02T05:41:50;3.55;;;3.25;;
75504;SDS011;64085;54.974;73.410;2023-07-02T05:44:16;5.13;;;3.33;;
75504;SDS011;64085;54.974;73.410;2023-07-02T05:46:41;3.50;;;3.20;;
75504;SDS011;64085;54.974;73.410;2023-07-02T05:49:06;3.60;;;3.40;;
75504;SDS011;64085;54.974;73.410;2023-07-02T05:51:32;5.15;;;3.45;;
75504;SDS011;64085;54.974;73.410;2023-07-02T05:53:57;3.20;;;3.00;;
75504;SDS011;64085;54.974;73.410;2023-07-02T05:56:23;5.18;;;3.20;;
75504;SDS011;64085;54.974;73.410;2023-07-02T05:58:48;4.00;;;3.67;;
75504;SDS011;64085;54.974;73.410;2023-07-02T06:01:15;5.10;;;3.38;;
75504;SDS011;64085;54.974;73.410;2023-07-02T06:03:40;4.18;;;3.83;;
75504;SDS011;64085;54.974;73.410;2023-07-02T06:06:10;2.95;;;2.75;;
75504;SDS011;64085;54.974;73.410;2023-07-02T06:08:39;3.55;;;3.25;;
75504;SDS011;64085;54.974;73.410;2023-07-02T06:11:04;3.92;;;3.55;;
75504;SDS011;64085;54.974;73.410;2023-07-02T06:13:30;4.50;;;3.55;;
75504;SDS011;64085;54.974;73.410;2023-07-02T06:15:55;4.03;;;3.70;;
75504;SDS011;64085;54.974;73.410;2023-07-02T06:18:20;3.95;;;3.40;;
75504;SDS011;64085;54.974;73.410;2023-07-02T06:20:46;3.92;;;3.60;;
75504;SDS011;64085;54.974;73.410;2023-07-02T06:23:11;3.72;;;2.85;;
75504;SDS011;64085;54.974;73.410;2023-07-02T06:25:37;4.47;;;3.95;;
75504;SDS011;64085;54.974;73.410;2023-07-02T06:28:02;4.65;;;3.35;;
75504;SDS011;64085;54.974;73.410;2023-07-02T06:30:28;3.40;;;3.10;;
75504;SDS011;64085;54.974;73.410;2023-07-02T06:32:53;4.68;;;3.60;;
75504;SDS011;64085;54.974;73.410;2023-07-02T06:35:19;4.70;;;2.92;;
75504;SDS011;64085;54.974;73.410;2023-07-02T06:37:45;3.95;;;3.50;;
75504;SDS011;64085;54.974;73.410;2023-07-02T06:40:11;4.00;;;3.47;;
75504;SDS011;64085;54.974;73.410;2023-07-02T06:42:36;4.28;;;3.88;;
75504;SDS011;64085;54.974;73.410;2023-07-02T06:45:02;5.65;;;3.45;;
75504;SDS011;64085;54.974;73.410;2023-07-02T06:47:28;2.83;;;2.63;;
75504;SDS011;64085;54.974;73.410;2023-07-02T06:49:53;3.80;;;3.47;;
75504;SDS011;64085;54.974;73.410;2023-07-02T06:52:19;5.72;;;3.33;;
75504;SDS011;64085;54.974;73.410;2023-07-02T06:54:44;3.38;;;3.15;;
75504;SDS011;64085;54.974;73.410;2023-07-02T06:57:10;6.18;;;4.10;;
75504;SDS011;64085;54.974;73.410;2023-07-02T06:59:35;6.53;;;3.58;;
75504;SDS011;64085;54.974;73.410;2023-07-02T07:02:01;5.18;;;3.40;;
75504;SDS011;64085;54.974;73.410;2023-07-02T07:04:27;4.68;;;3.13;;
75504;SDS011;64085;54.974;73.410;2023-07-02T07:06:53;9.95;;;3.72;;
75504;SDS011;64085;54.974;73.410;2023-07-02T07:09:20;4.63;;;3.35;;
75504;SDS011;64085;54.974;73.410;2023-07-02T07:11:45;5.15;;;3.60;;
75504;SDS011;64085;54.974;73.410;2023-07-02T07:14:11;4.18;;;3.05;;
75504;SDS011;64085;54.974;73.410;2023-07-02T07:16:36;4.45;;;3.35;;
75504;SDS011;64085;54.974;73.410;2023-07-02T07:19:02;3.97;;;3.15;;
75504;SDS011;64085;54.974;73.410;2023-07-02T07:21:28;5.13;;;3.20;;
75504;SDS011;64085;54.974;73.410;2023-07-02T07:23:53;6.32;;;3.45;;
75504;SDS011;64085;54.974;73.410;2023-07-02T07:26:19;5.68;;;4.00;;
75504;SDS011;64085;54.974;73.410;2023-07-02T07:28:46;6.18;;;3.72;;
75504;SDS011;64085;54.974;73.410;2023-07-02T07:31:12;3.88;;;2.92;;
75504;SDS011;64085;54.974;73.410;2023-07-02T07:33:37;5.97;;;3.20;;
75504;SDS011;64085;54.974;73.410;2023-07-02T07:36:03;3.50;;;3.00;;
75504;SDS011;64085;54.974;73.410;2023-07-02T07:38:29;4.60;;;3.00;;
75504;SDS011;64085;54.974;73.410;2023-07-02T07:40:54;4.13;;;2.85;;
75504;SDS011;64085;54.974;73.410;2023-07-02T07:43:20;5.70;;;3.65;;
75504;SDS011;64085;54.974;73.410;2023-07-02T07:45:45;3.50;;;3.05;;
75504;SDS011;64085;54.974;73.410;2023-07-02T07:48:11;5.40;;;3.97;;
75504;SDS011;64085;54.974;73.410;2023-07-02T07:50:36;4.05;;;3.10;;
75504;SDS011;64085;54.974;73.410;2023-07-02T07:53:02;4.10;;;3.40;;
75504;SDS011;64085;54.974;73.410;2023-07-02T07:55:27;3.95;;;2.45;;
75504;SDS011;64085;54.974;73.410;2023-07-02T07:57:52;4.45;;;3.38;;
75504;SDS011;64085;54.974;73.410;2023-07-02T08:00:18;3.67;;;3.35;;
75504;SDS011;64085;54.974;73.410;2023-07-02T08:02:44;5.22;;;3.90;;
75504;SDS011;64085;54.974;73.410;2023-07-02T08:05:10;3.42;;;2.33;;
75504;SDS011;64085;54.974;73.410;2023-07-02T08:07:35;4.40;;;3.53;;
75504;SDS011;64085;54.974;73.410;2023-07-02T08:10:01;5.55;;;3.38;;
75504;SDS011;64085;54.974;73.410;2023-07-02T08:12:27;3.53;;;3.00;;
75504;SDS011;64085;54.974;73.410;2023-07-02T08:14:54;4.75;;;3.72;;
75504;SDS011;64085;54.974;73.410;2023-07-02T08:17:20;3.08;;;2.88;;
75504;SDS011;64085;54.974;73.410;2023-07-02T08:19:45;4.00;;;3.20;;
75504;SDS011;64085;54.974;73.410;2023-07-02T08:22:11;4.20;;;3.15;;
75504;SDS011;64085;54.974;73.410;2023-07-02T08:24:36;3.13;;;2.80;;
75504;SDS011;64085;54.974;73.410;2023-07-02T08:27:02;4.50;;;3.00;;
75504;SDS011;64085;54.974;73.410;2023-07-02T08:29:34;4.65;;;2.97;;
75504;SDS011;64085;54.974;73.410;2023-07-02T08:31:59;3.83;;;3.03;;
75504;SDS011;64085;54.974;73.410;2023-07-02T08:34:25;8.38;;;3.10;;
75504;SDS011;64085;54.974;73.410;2023-07-02T08:36:50;5.25;;;3.55;;
75504;SDS011;64085;54.974;73.410;2023-07-02T08:39:16;4.50;;;3.35;;
75504;SDS011;64085;54.974;73.410;2023-07-02T08:41:45;3.33;;;2.80;;
75504;SDS011;64085;54.974;73.410;2023-07-02T08:44:11;4.55;;;3.30;;
75504;SDS011;64085;54.974;73.410;2023-07-02T08:46:37;3.45;;;3.15;;
75504;SDS011;64085;54.974;73.410;2023-07-02T08:49:03;5.65;;;3.15;;
75504;SDS011;64085;54.974;73.410;2023-07-02T08:51:29;6.43;;;4.00;;
75504;SDS011;64085;54.974;73.410;2023-07-02T08:53:54;4.57;;;3.35;;
75504;SDS011;64085;54.974;73.410;2023-07-02T08:56:20;4.38;;;3.30;;
75504;SDS011;64085;54.974;73.410;2023-07-02T08:58:45;4.88;;;3.00;;
75504;SDS011;64085;54.974;73.410;2023-07-02T09:01:11;3.90;;;3.17;;
75504;SDS011;64085;54.974;73.410;2023-07-02T09:03:37;4.18;;;3.35;;
75504;SDS011;64085;54.974;73.410;2023-07-02T09:06:04;3.88;;;2.80;;
75504;SDS011;64085;54.974;73.410;2023-07-02T09:08:29;3.45;;;3.15;;
75504;SDS011;64085;54.974;73.410;2023-07-02T09:11:13;5.18;;;4.22;;
75504;SDS011;64085;54.974;73.410;2023-07-02T09:13:44;5.05;;;2.88;;
75504;SDS011;64085;54.974;73.410;2023-07-02T09:16:31;5.22;;;3.33;;
75504;SDS011;64085;54.974;73.410;2023-07-02T09:19:06;4.28;;;3.30;;
75504;SDS011;64085;54.974;73.410;2023-07-02T09:24:11;3.10;;;2.67;;
75504;SDS011;64085;54.974;73.410;2023-07-02T09:26:36;3.33;;;3.05;;
75504;SDS011;64085;54.974;73.410;2023-07-02T09:29:01;4.68;;;3.13;;
75504;SDS011;64085;54.974;73.410;2023-07-02T09:31:27;3.25;;;2.90;;
75504;SDS011;64085;54.974;73.410;2023-07-02T09:34:00;3.10;;;2.80;;
75504;SDS011;64085;54.974;73.410;2023-07-02T09:36:26;4.03;;;3.55;;
75504;SDS011;64085;54.974;73.410;2023-07-02T09:38:51;4.43;;;3.00;;
75504;SDS011;64085;54.974;73.410;2023-07-02T09:41:16;3.55;;;2.90;;
75504;SDS011;64085;54.974;73.410;2023-07-02T09:43:42;4.10;;;2.47;;
75504;SDS011;64085;54.974;73.410;2023-07-02T09:46:07;4.30;;;3.03;;
75504;SDS011;64085;54.974;73.410;2023-07-02T09:48:33;3.15;;;2.85;;
75504;SDS011;64085;54.974;73.410;2023-07-02T09:51:00;3.70;;;3.13;;
75504;SDS011;64085;54.974;73.410;2023-07-02T09:53:26;4.20;;;3.58;;
75504;SDS011;64085;54.974;73.410;2023-07-02T09:55:52;3.55;;;2.80;;
75504;SDS011;64085;54.974;73.410;2023-07-02T09:58:17;4.03;;;2.95;;
75504;SDS011;64085;54.974;73.410;2023-07-02T10:00:43;4.25;;;3.63;;
75504;SDS011;64085;54.974;73.410;2023-07-02T10:03:11;3.90;;;3.47;;
75504;SDS011;64085;54.974;73.410;2023-07-02T10:05:37;3.95;;;3.42;;
75504;SDS011;64085;54.974;73.410;2023-07-02T10:08:12;3.25;;;2.70;;
75504;SDS011;64085;54.974;73.410;2023-07-02T10:10:38;5.43;;;3.10;;
75504;SDS011;64085;54.974;73.410;2023-07-02T10:13:04;4.22;;;2.88;;
75504;SDS011;64085;54.974;73.410;2023-07-02T10:15:30;3.70;;;3.30;;
75504;SDS011;64085;54.974;73.410;2023-07-02T10:17:57;5.40;;;3.28;;
75504;SDS011;64085;54.974;73.410;2023-07-02T10:20:32;3.55;;;3.03;;
75504;SDS011;64085;54.974;73.410;2023-07-02T10:23:02;3.97;;;3.30;;
75504;SDS011;64085;54.974;73.410;2023-07-02T10:25:28;4.90;;;2.88;;
75504;SDS011;64085;54.974;73.410;2023-07-02T10:27:54;4.90;;;2.90;;
75504;SDS011;64085;54.974;73.410;2023-07-02T10:30:29;3.17;;;2.30;;
75504;SDS011;64085;54.974;73.410;2023-07-02T10:32:55;4.07;;;3.40;;
75504;SDS011;64085;54.974;73.410;2023-07-02T10:35:32;5.55;;;4.40;;
75504;SDS011;64085;54.974;73.410;2023-07-02T10:37:58;4.00;;;3.60;;
75504;SDS011;64085;54.974;73.410;2023-07-02T10:40:23;5.38;;;4.13;;
75504;SDS011;64085;54.974;73.410;2023-07-02T10:42:49;4.40;;;3.03;;
75504;SDS011;64085;54.974;73.410;2023-07-02T10:45:15;4.70;;;3.33;;
75504;SDS011;64085;54.974;73.410;2023-07-02T10:47:41;4.70;;;4.15;;
75504;SDS011;64085;54.974;73.410;2023-07-02T10:50:19;13.57;;;9.35;;
75504;SDS011;64085;54.974;73.410;2023-07-02T10:52:45;19.02;;;12.15;;
75504;SDS011;64085;54.974;73.410;2023-07-02T10:55:15;25.40;;;16.80;;
75504;SDS011;64085;54.974;73.410;2023-07-02T10:57:43;12.07;;;8.30;;
75504;SDS011;64085;54.974;73.410;2023-07-02T11:00:09;5.70;;;4.18;;
75504;SDS011;64085;54.974;73.410;2023-07-02T11:02:35;6.63;;;3.90;;
75504;SDS011;64085;54.974;73.410;2023-07-02T11:05:00;4.10;;;3.28;;
75504;SDS011;64085;54.974;73.410;2023-07-02T11:07:26;3.17;;;2.92;;
75504;SDS011;64085;54.974;73.410;2023-07-02T11:09:51;20.08;;;11.40;;
75504;SDS011;64085;54.974;73.410;2023-07-02T11:12:17;27.48;;;18.42;;
75504;SDS011;64085;54.974;73.410;2023-07-02T11:14:42;47.45;;;30.55;;
75504;SDS011;64085;54.974;73.410;2023-07-02T11:17:07;24.92;;;15.63;;
75504;SDS011;64085;54.974;73.410;2023-07-02T11:19:33;7.35;;;5.43;;
75504;SDS011;64085;54.974;73.410;2023-07-02T11:21:58;4.72;;;3.88;;
75504;SDS011;64085;54.974;73.410;2023-07-02T11:26:56;14.73;;;9.68;;
75504;SDS011;64085;54.974;73.410;2023-07-02T11:29:22;21.77;;;15.10;;
75504;SDS011;64085;54.974;73.410;2023-07-02T11:31:47;12.00;;;8.35;;
75504;SDS011;64085;54.974;73.410;2023-07-02T11:34:13;6.90;;;3.90;;
75504;SDS011;64085;54.974;73.410;2023-07-02T11:36:39;4.25;;;3.55;;
75504;SDS011;64085;54.974;73.410;2023-07-02T11:39:05;3.00;;;2.70;;
75504;SDS011;64085;54.974;73.410;2023-07-02T11:41:40;3.45;;;2.53;;
75504;SDS011;64085;54.974;73.410;2023-07-02T11:44:06;4.53;;;3.10;;
75504;SDS011;64085;54.974;73.410;2023-07-02T11:46:31;4.07;;;2.95;;
75504;SDS011;64085;54.974;73.410;2023-07-02T11:49:00;3.78;;;2.85;;
75504;SDS011;64085;54.974;73.410;2023-07-02T11:51:26;4.95;;;2.88;;
75504;SDS011;64085;54.974;73.410;2023-07-02T11:53:51;2.75;;;2.55;;
75504;SDS011;64085;54.974;73.410;2023-07-02T11:56:17;5.70;;;2.47;;
75504;SDS011;64085;54.974;73.410;2023-07-02T11:58:42;4.75;;;3.00;;
75504;SDS011;64085;54.974;73.410;2023-07-02T12:01:08;3.38;;;3.00;;
75504;SDS011;64085;54.974;73.410;2023-07-02T12:03:33;4.70;;;2.85;;
75504;SDS011;64085;54.974;73.410;2023-07-02T12:05:59;3.90;;;2.90;;
75504;SDS011;64085;54.974;73.410;2023-07-02T12:08:24;3.38;;;3.08;;
75504;SDS011;64085;54.974;73.410;2023-07-02T12:10:50;6.15;;;4.47;;
75504;SDS011;64085;54.974;73.410;2023-07-02T12:13:15;4.07;;;2.83;;
75504;SDS011;64085;54.974;73.410;2023-07-02T12:15:41;3.65;;;2.70;;
75504;SDS011;64085;54.974;73.410;2023-07-02T12:18:06;3.15;;;2.28;;
75504;SDS011;64085;54.974;73.410;2023-07-02T12:20:32;3.50;;;2.67;;
75504;SDS011;64085;54.974;73.410;2023-07-02T12:22:57;3.05;;;2.53;;
75504;SDS011;64085;54.974;73.410;2023-07-02T12:25:23;2.90;;;2.58;;
75504;SDS011;64085;54.974;73.410;2023-07-02T12:27:48;4.78;;;2.88;;
75504;SDS011;64085;54.974;73.410;2023-07-02T12:30:14;2.78;;;2.55;;
75504;SDS011;64085;54.974;73.410;2023-07-02T12:32:44;2.75;;;2.50;;
75504;SDS011;64085;54.974;73.410;2023-07-02T12:35:09;3.33;;;2.65;;
75504;SDS011;64085;54.974;73.410;2023-07-02T12:37:35;4.93;;;3.15;;
75504;SDS011;64085;54.974;73.410;2023-07-02T12:40:00;3.92;;;3.03;;
75504;SDS011;64085;54.974;73.410;2023-07-02T12:42:26;4.53;;;3.25;;
75504;SDS011;64085;54.974;73.410;2023-07-02T12:44:51;4.65;;;2.80;;
75504;SDS011;64085;54.974;73.410;2023-07-02T12:47:17;4.78;;;2.95;;
75504;SDS011;64085;54.974;73.410;2023-07-02T12:49:43;2.78;;;2.53;;
75504;SDS011;64085;54.974;73.410;2023-07-02T12:52:08;3.90;;;2.67;;
75504;SDS011;64085;54.974;73.410;2023-07-02T12:54:34;4.47;;;2.60;;
75504;SDS011;64085;54.974;73.410;2023-07-02T12:56:59;3.70;;;2.53;;
75504;SDS011;64085;54.974;73.410;2023-07-02T12:59:25;3.25;;;2.53;;
75504;SDS011;64085;54.974;73.410;2023-07-02T13:01:50;3.42;;;2.00;;
75504;SDS011;64085;54.974;73.410;2023-07-02T13:04:15;2.22;;;2.03;;
75504;SDS011;64085;54.974;73.410;2023-07-02T13:06:41;2.45;;;2.20;;
75504;SDS011;64085;54.974;73.410;2023-07-02T13:09:09;2.53;;;2.10;;
75504;SDS011;64085;54.974;73.410;2023-07-02T13:11:35;4.15;;;2.28;;
75504;SDS011;64085;54.974;73.410;2023-07-02T13:14:01;5.72;;;2.80;;
75504;SDS011;64085;54.974;73.410;2023-07-02T13:16:26;4.60;;;2.58;;
75504;SDS011;64085;54.974;73.410;2023-07-02T13:18:52;2.90;;;2.42;;
75504;SDS011;64085;54.974;73.410;2023-07-02T13:21:20;5.65;;;3.22;;
75504;SDS011;64085;54.974;73.410;2023-07-02T13:23:45;3.63;;;2.33;;
75504;SDS011;64085;54.974;73.410;2023-07-02T13:26:11;3.58;;;2.25;;
75504;SDS011;64085;54.974;73.410;2023-07-02T13:28:36;3.05;;;2.22;;
75504;SDS011;64085;54.974;73.410;2023-07-02T13:31:02;3.58;;;2.47;;
75504;SDS011;64085;54.974;73.410;2023-07-02T13:33:27;5.78;;;2.88;;
75504;SDS011;64085;54.974;73.410;2023-07-02T13:35:54;3.35;;;2.50;;
75504;SDS011;64085;54.974;73.410;2023-07-02T13:38:19;8.10;;;3.30;;
75504;SDS011;64085;54.974;73.410;2023-07-02T13:40:45;3.35;;;2.30;;
75504;SDS011;64085;54.974;73.410;2023-07-02T13:43:10;3.88;;;2.63;;
75504;SDS011;64085;54.974;73.410;2023-07-02T13:45:36;4.13;;;2.40;;
75504;SDS011;64085;54.974;73.410;2023-07-02T13:48:01;4.45;;;2.90;;
75504;SDS011;64085;54.974;73.410;2023-07-02T13:50:26;3.58;;;2.55;;
75504;SDS011;64085;54.974;73.410;2023-07-02T13:52:52;8.02;;;2.67;;
75504;SDS011;64085;54.974;73.410;2023-07-02T13:55:17;4.85;;;2.22;;
75504;SDS011;64085;54.974;73.410;2023-07-02T13:57:43;5.55;;;2.83;;
75504;SDS011;64085;54.974;73.410;2023-07-02T14:00:08;5.13;;;3.10;;
75504;SDS011;64085;54.974;73.410;2023-07-02T14:02:34;6.78;;;3.03;;
75504;SDS011;64085;54.974;73.410;2023-07-02T14:04:59;4.25;;;2.50;;
75504;SDS011;64085;54.974;73.410;2023-07-02T14:07:25;4.70;;;2.70;;
75504;SDS011;64085;54.974;73.410;2023-07-02T14:09:50;4.03;;;2.72;;
75504;SDS011;64085;54.974;73.410;2023-07-02T14:12:16;6.35;;;4.03;;
75504;SDS011;64085;54.974;73.410;2023-07-02T14:14:41;4.68;;;3.80;;
75504;SDS011;64085;54.974;73.410;2023-07-02T14:17:07;7.40;;;4.80;;
75504;SDS011;64085;54.974;73.410;2023-07-02T14:19:33;8.07;;;4.75;;
75504;SDS011;64085;54.974;73.410;2023-07-02T14:21:58;8.05;;;4.82;;
75504;SDS011;64085;54.974;73.410;2023-07-02T14:24:23;7.20;;;3.83;;
75504;SDS011;64085;54.974;73.410;2023-07-02T14:26:51;10.32;;;4.78;;
75504;SDS011;64085;54.974;73.410;2023-07-02T14:29:17;9.05;;;4.28;;
75504;SDS011;64085;54.974;73.410;2023-07-02T14:31:42;6.45;;;3.80;;
75504;SDS011;64085;54.974;73.410;2023-07-02T14:34:08;9.25;;;4.68;;